Time,TemperatureF,DewpointF,PressureIn,WindDirection,WindDirectionDegrees,WindSpeedMPH,WindSpeedGustMPH,Humidity,HourlyPrecipIn,Conditions,Clouds,dailyrainin,SolarRadiationWatts/m^2,SoftwareType,DateUTC
2013-06-20 00:01:00,64.7,57.0,30.14,North,5,1.2,1.2,76,0.00,CLR,,0.00,0.0,WeatherDisplay:10.37,2013-06-20 04:01:00,
2013-06-20 00:02:00,64.7,57.3,30.14,North,5,1.2,0.0,77,0.00,CLR,,0.00,0.0,WeatherDisplay:10.37,2013-06-20 04:02:00,
2013-06-20 00:07:00,64.4,56.3,30.14,North,5,0.0,0.0,75,0.00,CLR,,0.00,0.0,WeatherDisplay:10.37,2013-06-20 04:07:00,
2013-06-20 00:12:00,64.3,55.8,30.14,NNE,15,1.2,1.2,74,0.00,CLR,,0.00,0.0,WeatherDisplay:10.37,2013-06-20 04:12:00,
2013-06-20 00:17:00,64.3,55.8,30.15,ENE,74,0.0,0.0,74,0.00,CLR,,0.00,0.0,WeatherDisplay:10.37,2013-06-20 04:17:00,
2013-06-20 00:22:00,64.3,56.2,30.15,SE,146,1.2,1.2,75,0.00,CLR,,0.00,0.0,WeatherDisplay:10.37,2013-06-20 04:22:00,
2013-06-20 00:27:00,64.2,57.2,30.15,East,86,2.3,2.3,78,0.00,CLR,,0.00,0.0,WeatherDisplay:10.37,2013-06-20 04:27:00,
2013-06-20 00:32:00,64.1,57.8,30.15,East,99,3.5,3.5,80,0.00,CLR,,0.00,0.0,WeatherDisplay:10.37,2013-06-20 04:32:00,
2013-06-20 00:37:00,63.9,58.0,30.15,ESE,104,2.3,2.3,81,0.00,CLR,,0.00,0.0,WeatherDisplay:10.37,2013-06-20 04:37:00,
2013-06-20 00:42:00,63.7,58.4,30.15,ESE,104,2.3,2.3,83,0.00,CLR,,0.00,0.0,WeatherDisplay:10.37,2013-06-20 04:42:00,
2013-06-20 00:47:00,63.5,58.6,30.15,ESE,102,3.5,3.5,84,0.00,CLR,,0.00,0.0,WeatherDisplay:10.37,2013-06-20 04:47:00,
2013-06-20 00:52:00,63.3,58.7,30.16,ESE,102,1.2,1.2,85,0.00,CLR,,0.00,0.0,WeatherDisplay:10.37,2013-06-20 04:52:00,
2013-06-20 00:57:00,63.2,58.6,30.16,East,100,2.3,2.3,85,0.00,CLR,,0.00,0.0,WeatherDisplay:10.37,2013-06-20 04:57:00,
2013-06-20 01:02:00,63.1,58.8,30.16,SE,141,1.2,1.2,86,0.00,CLR,,0.00,0.0,WeatherDisplay:10.37,2013-06-20 05:02:00,
2013-06-20 01:07:00,63.1,58.8,30.16,ENE,78,1.2,1.2,86,0.00,CLR,,0.00,0.0,WeatherDisplay:10.37,2013-06-20 05:07:00,
2013-06-20 01:12:00,62.9,58.6,30.16,SE,125,1.2,1.2,86,0.00,CLR,,0.00,0.0,WeatherDisplay:10.37,2013-06-20 05:12:00,
2013-06-20 01:17:00,62.8,58.5,30.16,SE,138,1.2,1.2,86,0.00,CLR,,0.00,0.0,WeatherDisplay:10.37,2013-06-20 05:17:00,
2013-06-20 01:22:00,62.7,58.5,30.16,SE,132,1.2,1.2,86,0.00,CLR,,0.00,0.0,WeatherDisplay:10.37,2013-06-20 05:22:00,
2013-06-20 01:27:00,62.6,58.4,30.16,SE,133,2.3,2.3,86,0.00,CLR,,0.00,0.0,WeatherDisplay:10.37,2013-06-20 05:27:00,
2013-06-20 01:32:00,62.4,58.2,30.16,SE,134,1.2,1.2,86,0.00,CLR,,0.00,0.0,WeatherDisplay:10.37,2013-06-20 05:32:00,
2013-06-20 01:37:00,62.4,58.2,30.16,SE,133,1.2,1.2,86,0.00,CLR,,0.00,0.0,WeatherDisplay:10.37,2013-06-20 05:37:00,
2013-06-20 01:42:00,62.3,58.1,30.16,SE,137,4.6,4.6,86,0.00,CLR,,0.00,0.0,WeatherDisplay:10.37,2013-06-20 05:42:00,
2013-06-20 01:47:00,62.2,58.0,30.16,SE,144,1.2,1.2,86,0.00,CLR,,0.00,0.0,WeatherDisplay:10.37,2013-06-20 05:47:00,
2013-06-20 01:52:00,62.1,57.9,30.16,SE,128,1.2,1.2,86,0.00,CLR,,0.00,0.0,WeatherDisplay:10.37,2013-06-20 05:52:00,
2013-06-20 01:57:00,62.1,57.5,30.16,SE,130,1.2,1.2,85,0.00,CLR,,0.00,0.0,WeatherDisplay:10.37,2013-06-20 05:57:00,
2013-06-20 02:02:00,62.0,57.4,30.16,SE,130,2.3,2.3,85,0.00,CLR,,0.00,0.0,WeatherDisplay:10.37,2013-06-20 06:02:00,
2013-06-20 02:07:00,62.0,57.4,30.16,SE,130,2.3,2.3,85,0.00,CLR,,0.00,0.0,WeatherDisplay:10.37,2013-06-20 06:07:00,
2013-06-20 02:12:00,61.9,57.3,30.16,SE,134,1.2,1.2,85,0.00,CLR,,0.00,0.0,WeatherDisplay:10.37,2013-06-20 06:12:00,
2013-06-20 02:17:00,61.9,57.0,30.16,SE,134,1.0,1.0,84,0.00,CLR,,0.00,0.0,WeatherDisplay:10.37,2013-06-20 06:17:00,
2013-06-20 02:22:00,61.8,56.9,30.16,SE,134,1.2,0.0,84,0.00,CLR,,0.00,0.0,WeatherDisplay:10.37,2013-06-20 06:22:00,
2013-06-20 02:27:00,61.7,56.8,30.16,SE,134,1.2,1.2,84,0.00,CLR,,0.00,0.0,WeatherDisplay:10.37,2013-06-20 06:27:00,
2013-06-20 02:32:00,61.6,56.7,30.16,SE,134,0.0,0.0,84,0.00,CLR,,0.00,0.0,WeatherDisplay:10.37,2013-06-20 06:32:00,
2013-06-20 02:37:00,61.6,56.7,30.16,SE,134,0.0,0.0,84,0.00,CLR,,0.00,0.0,WeatherDisplay:10.37,2013-06-20 06:37:00,
2013-06-20 02:42:00,61.6,56.4,30.16,SE,134,0.0,0.0,83,0.00,CLR,,0.00,0.0,WeatherDisplay:10.37,2013-06-20 06:42:00,
2013-06-20 02:47:00,61.6,56.4,30.17,SE,134,0.0,0.0,83,0.00,CLR,,0.00,0.0,WeatherDisplay:10.37,2013-06-20 06:47:00,
2013-06-20 02:52:00,61.6,56.0,30.17,SE,134,0.0,0.0,82,0.00,CLR,,0.00,0.0,WeatherDisplay:10.37,2013-06-20 06:52:00,
2013-06-20 02:57:00,61.5,56.0,30.17,SE,134,0.0,0.1,82,0.00,CLR,,0.00,0.0,WeatherDisplay:10.37,2013-06-20 06:57:00,
2013-06-20 03:02:00,61.5,56.0,30.17,SE,134,0.0,0.0,82,0.00,CLR,,0.00,0.0,WeatherDisplay:10.37,2013-06-20 07:02:00,
2013-06-20 03:07:00,61.5,56.0,30.17,SE,134,0.0,0.0,82,0.00,CLR,,0.00,0.0,WeatherDisplay:10.37,2013-06-20 07:07:00,
2013-06-20 03:12:00,61.4,55.9,30.17,SE,134,0.0,0.0,82,0.00,CLR,,0.00,0.0,WeatherDisplay:10.37,2013-06-20 07:12:00,
2013-06-20 03:17:00,61.3,55.8,30.17,SE,134,0.0,0.0,82,0.00,CLR,,0.00,0.0,WeatherDisplay:10.37,2013-06-20 07:17:00,
2013-06-20 03:22:00,61.2,55.7,30.17,SE,134,0.0,0.0,82,0.00,CLR,,0.00,0.0,WeatherDisplay:10.37,2013-06-20 07:22:00,
2013-06-20 03:27:00,61.1,55.6,30.17,SE,134,0.0,0.0,82,0.00,CLR,,0.00,0.0,WeatherDisplay:10.37,2013-06-20 07:27:00,
2013-06-20 03:32:00,61.1,55.6,30.17,SE,134,0.0,0.0,82,0.00,CLR,,0.00,0.0,WeatherDisplay:10.37,2013-06-20 07:32:00,
2013-06-20 03:37:00,61.0,55.5,30.17,SE,134,0.0,0.0,82,0.00,CLR,,0.00,0.0,WeatherDisplay:10.37,2013-06-20 07:37:00,
2013-06-20 03:42:00,61.0,55.5,30.17,SE,134,0.0,0.0,82,0.00,CLR,,0.00,0.0,WeatherDisplay:10.37,2013-06-20 07:42:00,
2013-06-20 03:47:00,60.9,55.0,30.17,SE,134,0.0,0.0,81,0.00,CLR,,0.00,0.0,WeatherDisplay:10.37,2013-06-20 07:47:00,
2013-06-20 03:52:00,60.8,55.3,30.17,SE,134,0.0,0.0,82,0.00,CLR,,0.00,0.0,WeatherDisplay:10.37,2013-06-20 07:52:00,
2013-06-20 03:57:00,60.8,54.9,30.17,SE,134,0.0,0.0,81,0.00,CLR,,0.00,0.0,WeatherDisplay:10.37,2013-06-20 07:57:00,
2013-06-20 04:02:00,60.7,54.8,30.17,SE,134,0.0,0.0,81,0.00,CLR,,0.00,0.0,WeatherDisplay:10.37,2013-06-20 08:02:00,
2013-06-20 04:07:00,60.6,55.1,30.17,SE,134,0.0,0.0,82,0.00,CLR,,0.00,0.0,WeatherDisplay:10.37,2013-06-20 08:07:00,
2013-06-20 04:12:00,60.5,55.0,30.17,SE,134,0.0,0.0,82,0.00,CLR,,0.00,0.0,WeatherDisplay:10.37,2013-06-20 08:12:00,
2013-06-20 04:17:00,60.4,54.9,30.17,SE,134,0.0,0.0,82,0.00,CLR,,0.00,0.0,WeatherDisplay:10.37,2013-06-20 08:17:00,
2013-06-20 04:22:00,60.4,54.9,30.18,SE,134,0.0,0.0,82,0.00,CLR,,0.00,0.0,WeatherDisplay:10.37,2013-06-20 08:22:00,
2013-06-20 04:27:00,60.3,54.8,30.18,SE,134,0.0,0.0,82,0.00,CLR,,0.00,0.0,WeatherDisplay:10.37,2013-06-20 08:27:00,
2013-06-20 04:32:00,60.1,54.6,30.18,SE,134,0.0,0.0,82,0.00,CLR,,0.00,0.0,WeatherDisplay:10.37,2013-06-20 08:32:00,
2013-06-20 04:37:00,59.9,54.7,30.18,SE,134,0.0,0.0,83,0.00,CLR,,0.00,0.0,WeatherDisplay:10.37,2013-06-20 08:37:00,
2013-06-20 04:42:00,59.6,54.8,30.18,SE,134,0.0,0.0,84,0.00,CLR,,0.00,0.0,WeatherDisplay:10.37,2013-06-20 08:42:00,
2013-06-20 04:47:00,59.4,54.6,30.18,SE,134,0.0,0.0,84,0.00,CLR,,0.00,0.0,WeatherDisplay:10.37,2013-06-20 08:47:00,
2013-06-20 04:52:00,59.2,54.4,30.18,SE,134,0.0,0.0,84,0.00,CLR,,0.00,0.0,WeatherDisplay:10.37,2013-06-20 08:52:00,
2013-06-20 04:57:00,59.1,54.6,30.19,SE,134,0.0,0.0,85,0.00,CLR,,0.00,0.0,WeatherDisplay:10.37,2013-06-20 08:57:00,
2013-06-20 05:02:00,58.9,54.4,30.19,SE,134,0.0,0.0,85,0.00,CLR,,0.00,0.0,WeatherDisplay:10.37,2013-06-20 09:02:00,
2013-06-20 05:07:00,58.8,54.6,30.19,SE,134,0.0,0.0,86,0.00,CLR,,0.00,0.0,WeatherDisplay:10.37,2013-06-20 09:07:00,
2013-06-20 05:12:00,58.7,54.5,30.19,SE,134,0.0,0.0,86,0.00,CLR,,0.00,0.0,WeatherDisplay:10.37,2013-06-20 09:12:00,
2013-06-20 05:17:00,58.7,55.2,30.19,SE,134,0.0,0.0,88,0.00,CLR,,0.00,0.0,WeatherDisplay:10.37,2013-06-20 09:17:00,
2013-06-20 05:22:00,58.7,55.2,30.19,SE,134,0.0,0.0,88,0.00,CLR,,0.00,0.0,WeatherDisplay:10.37,2013-06-20 09:22:00,
2013-06-20 05:27:00,58.7,55.2,30.19,SE,134,0.0,0.0,88,0.00,CLR,,0.00,0.0,WeatherDisplay:10.37,2013-06-20 09:27:00,
2013-06-20 05:32:00,58.7,55.2,30.19,SE,134,0.0,0.0,88,0.00,CLR,,0.00,0.0,WeatherDisplay:10.37,2013-06-20 09:32:00,
2013-06-20 05:37:00,58.7,55.2,30.19,SE,134,0.0,0.0,88,0.00,CLR,,0.00,5.0,WeatherDisplay:10.37,2013-06-20 09:37:00,
2013-06-20 05:42:00,58.7,55.2,30.19,SE,134,0.0,0.0,88,0.00,CLR,,0.00,7.0,WeatherDisplay:10.37,2013-06-20 09:42:00,
2013-06-20 05:47:00,58.8,55.3,30.20,SE,134,0.0,0.0,88,0.00,CLR,,0.00,14.0,WeatherDisplay:10.37,2013-06-20 09:47:00,
2013-06-20 05:52:00,59.0,55.4,30.21,SE,134,0.0,0.0,88,0.00,CLR,,0.00,16.0,WeatherDisplay:10.37,2013-06-20 09:52:00,
2013-06-20 05:57:00,59.1,55.2,30.21,SE,134,0.0,0.0,87,0.00,CLR,,0.00,21.0,WeatherDisplay:10.37,2013-06-20 09:57:00,
2013-06-20 06:02:00,59.2,55.3,30.21,SE,134,0.0,0.0,87,0.00,BKN,,0.00,32.0,WeatherDisplay:10.37,2013-06-20 10:02:00,
2013-06-20 06:07:00,59.4,55.2,30.21,SE,134,0.0,0.0,86,0.00,BKN,,0.00,40.0,WeatherDisplay:10.37,2013-06-20 10:07:00,
2013-06-20 06:12:00,59.9,55.4,30.21,SE,134,0.0,0.0,85,0.00,BKN,,0.00,47.0,WeatherDisplay:10.37,2013-06-20 10:12:00,
2013-06-20 06:17:00,60.4,55.2,30.21,SE,134,0.0,0.0,83,0.00,BKN,,0.00,58.0,WeatherDisplay:10.37,2013-06-20 10:17:00,
2013-06-20 06:22:00,60.9,55.0,30.21,SE,134,2.3,2.3,81,0.00,BKN,,0.00,72.0,WeatherDisplay:10.37,2013-06-20 10:22:00,
2013-06-20 06:27:00,61.4,55.5,30.21,SE,134,1.2,0.0,81,0.00,BKN,,0.00,79.0,WeatherDisplay:10.37,2013-06-20 10:27:00,
2013-06-20 06:32:00,61.7,55.5,30.21,SE,134,0.0,0.0,80,0.00,BKN,,0.00,93.0,WeatherDisplay:10.37,2013-06-20 10:32:00,
2013-06-20 06:37:00,62.0,55.8,30.21,SE,134,0.0,0.0,80,0.00,BKN,,0.00,105.0,WeatherDisplay:10.37,2013-06-20 10:37:00,
2013-06-20 06:42:00,62.4,55.8,30.22,SE,134,0.0,0.0,79,0.00,BKN,,0.00,116.0,WeatherDisplay:10.37,2013-06-20 10:42:00,
2013-06-20 06:47:00,62.8,56.2,30.22,SE,134,0.0,0.0,79,0.00,BKN,,0.00,125.0,WeatherDisplay:10.37,2013-06-20 10:47:00,
2013-06-20 06:52:00,63.2,56.2,30.22,SE,134,0.0,0.0,78,0.00,BKN,,0.00,153.0,WeatherDisplay:10.37,2013-06-20 10:52:00,
2013-06-20 06:57:00,63.6,56.3,30.22,SE,134,1.2,1.2,77,0.00,BKN,,0.00,130.0,WeatherDisplay:10.37,2013-06-20 10:57:00,
2013-06-20 07:02:00,63.8,56.4,30.22,SE,134,1.2,0.0,77,0.00,OVC,,0.00,132.0,WeatherDisplay:10.37,2013-06-20 11:02:00,
2013-06-20 07:07:00,63.8,56.8,30.22,SE,134,1.0,1.0,78,0.00,OVC,,0.00,121.0,WeatherDisplay:10.37,2013-06-20 11:07:00,
2013-06-20 07:12:00,63.9,56.9,30.22,SE,134,1.2,1.2,78,0.00,OVC,,0.00,120.0,WeatherDisplay:10.37,2013-06-20 11:12:00,
2013-06-20 07:17:00,64.0,58.4,30.22,SE,134,1.2,1.2,82,0.00,OVC,,0.00,172.0,WeatherDisplay:10.37,2013-06-20 11:17:00,
2013-06-20 07:22:00,64.0,59.1,30.22,SE,134,3.5,3.5,84,0.00,OVC,,0.00,149.0,WeatherDisplay:10.37,2013-06-20 11:22:00,
2013-06-20 07:27:00,63.9,60.3,30.22,SE,144,2.3,2.3,88,0.00,OVC,,0.00,105.0,WeatherDisplay:10.37,2013-06-20 11:27:00,
2013-06-20 07:32:00,63.9,60.6,30.22,SE,145,2.3,2.3,89,0.00,OVC,,0.00,98.0,WeatherDisplay:10.37,2013-06-20 11:32:00,
2013-06-20 07:37:00,63.9,60.9,30.22,SE,144,2.3,2.3,90,0.00,OVC,,0.00,114.0,WeatherDisplay:10.37,2013-06-20 11:37:00,
2013-06-20 07:42:00,64.0,61.3,30.23,South,169,2.3,2.3,91,0.00,OVC,,0.00,113.0,WeatherDisplay:10.37,2013-06-20 11:42:00,
2013-06-20 07:47:00,64.1,61.7,30.23,South,186,2.3,2.3,92,0.00,OVC,,0.00,134.0,WeatherDisplay:10.37,2013-06-20 11:47:00,
2013-06-20 07:52:00,64.3,61.9,30.23,South,190,3.5,3.5,92,0.00,OVC,,0.00,141.0,WeatherDisplay:10.37,2013-06-20 11:52:00,
2013-06-20 07:57:00,64.6,62.2,30.23,SSW,192,3.5,3.5,92,0.00,OVC,,0.00,156.0,WeatherDisplay:10.37,2013-06-20 11:57:00,
2013-06-20 08:02:00,64.9,62.2,30.23,South,182,2.3,2.3,91,0.00,OVC,,0.00,181.0,WeatherDisplay:10.37,2013-06-20 12:02:00,
2013-06-20 08:07:00,65.0,62.3,30.23,South,184,3.5,3.5,91,0.00,OVC,,0.00,163.0,WeatherDisplay:10.37,2013-06-20 12:07:00,
2013-06-20 08:12:00,65.1,62.1,30.23,South,184,2.3,2.3,90,0.00,OVC,,0.00,167.0,WeatherDisplay:10.37,2013-06-20 12:12:00,
2013-06-20 08:17:00,65.2,61.9,30.24,South,184,3.5,3.5,89,0.00,OVC,,0.00,171.0,WeatherDisplay:10.37,2013-06-20 12:17:00,
2013-06-20 08:22:00,65.4,61.1,30.24,South,184,4.6,4.6,86,0.00,OVC,,0.00,195.0,WeatherDisplay:10.37,2013-06-20 12:22:00,
2013-06-20 08:27:00,65.7,60.7,30.24,SE,143,3.5,3.5,84,0.00,OVC,,0.00,237.0,WeatherDisplay:10.37,2013-06-20 12:27:00,
2013-06-20 08:32:00,66.0,60.7,30.24,SE,138,1.2,1.2,83,0.00,OVC,,0.00,279.0,WeatherDisplay:10.37,2013-06-20 12:32:00,
2013-06-20 08:37:00,66.5,61.2,30.24,SSE,150,2.3,2.3,83,0.00,OVC,,0.00,285.0,WeatherDisplay:10.37,2013-06-20 12:37:00,
2013-06-20 08:42:00,67.0,61.3,30.24,SSE,150,2.3,2.3,82,0.00,OVC,,0.00,468.0,WeatherDisplay:10.37,2013-06-20 12:42:00,
2013-06-20 08:47:00,67.7,61.7,30.24,SSE,150,0.0,0.0,81,0.00,OVC,,0.00,323.0,WeatherDisplay:10.37,2013-06-20 12:47:00,
2013-06-20 08:52:00,68.0,61.2,30.24,ESE,121,2.3,2.3,79,0.00,OVC,,0.00,552.0,WeatherDisplay:10.37,2013-06-20 12:52:00,
2013-06-20 08:58:00,68.1,61.7,30.24,SSE,168,2.3,2.3,80,0.00,OVC,,0.00,396.0,WeatherDisplay:10.37,2013-06-20 12:58:00,
2013-06-20 09:03:00,68.3,62.2,30.24,SE,135,3.5,3.5,81,0.00,OVC,,0.00,285.0,WeatherDisplay:10.37,2013-06-20 13:03:00,
2013-06-20 09:08:00,67.5,61.8,30.24,SSE,166,2.3,2.3,82,0.00,OVC,,0.00,403.0,WeatherDisplay:10.37,2013-06-20 13:08:00,
2013-06-20 09:13:00,67.8,62.4,30.24,SE,128,3.0,3.0,83,0.00,OVC,,0.00,492.0,WeatherDisplay:10.37,2013-06-20 13:13:00,
2013-06-20 09:18:00,69.1,63.0,30.25,WSW,244,3.5,3.5,81,0.00,OVC,,0.00,612.0,WeatherDisplay:10.37,2013-06-20 13:18:00,
2013-06-20 09:23:00,69.0,62.2,30.25,SSW,198,2.3,2.3,79,0.00,OVC,,0.00,705.0,WeatherDisplay:10.37,2013-06-20 13:23:00,
2013-06-20 09:28:00,69.5,63.4,30.25,SSW,192,4.6,4.6,81,0.00,OVC,,0.00,640.0,WeatherDisplay:10.37,2013-06-20 13:28:00,
2013-06-20 09:33:00,70.0,63.5,30.25,South,182,4.6,4.6,80,0.00,OVC,,0.00,696.0,WeatherDisplay:10.37,2013-06-20 13:33:00,
2013-06-20 09:38:00,70.3,64.5,30.25,South,179,3.5,3.5,82,0.00,OVC,,0.00,780.0,WeatherDisplay:10.37,2013-06-20 13:38:00,
2013-06-20 09:43:00,70.5,64.4,30.25,South,181,3.5,3.5,81,0.00,OVC,,0.00,355.0,WeatherDisplay:10.37,2013-06-20 13:43:00,
2013-06-20 09:48:00,70.4,63.2,30.25,SSW,205,2.3,2.3,78,0.00,OVC,,0.00,318.0,WeatherDisplay:10.37,2013-06-20 13:48:00,
2013-06-20 09:53:00,70.6,64.8,30.25,SSW,202,3.5,3.5,82,0.00,OVC,,0.00,733.0,WeatherDisplay:10.37,2013-06-20 13:53:00,
2013-06-20 09:58:00,70.6,63.8,30.25,SSW,200,3.5,3.5,79,0.00,OVC,,0.00,253.0,WeatherDisplay:10.37,2013-06-20 13:58:00,
2013-06-20 10:03:00,70.1,63.3,30.25,SSE,150,2.3,2.3,79,0.00,OVC,,0.00,327.0,WeatherDisplay:10.37,2013-06-20 14:03:00,
2013-06-20 10:08:00,70.7,63.9,30.25,South,190,3.5,3.5,79,0.00,OVC,,0.00,805.0,WeatherDisplay:10.37,2013-06-20 14:08:00,
2013-06-20 10:13:00,71.3,63.7,30.25,SSE,159,1.2,1.2,77,0.00,OVC,,0.00,696.0,WeatherDisplay:10.37,2013-06-20 14:13:00,
2013-06-20 10:18:00,71.7,65.9,30.25,South,190,3.5,3.5,82,0.00,OVC,,0.00,696.0,WeatherDisplay:10.37,2013-06-20 14:18:00,
2013-06-20 10:23:00,72.8,64.0,30.25,South,182,2.3,2.3,74,0.00,OVC,,0.00,889.0,WeatherDisplay:10.37,2013-06-20 14:23:00,
2013-06-20 10:28:00,72.0,64.0,30.25,SSW,213,3.5,3.5,76,0.00,OVC,,0.00,290.0,WeatherDisplay:10.37,2013-06-20 14:28:00,
2013-06-20 10:33:00,71.3,63.7,30.25,West,262,3.5,3.5,77,0.00,OVC,,0.00,367.0,WeatherDisplay:10.37,2013-06-20 14:33:00,
2013-06-20 10:38:00,72.5,65.6,30.25,South,171,3.5,3.5,79,0.00,OVC,,0.00,861.0,WeatherDisplay:10.37,2013-06-20 14:38:00,
2013-06-20 10:43:00,72.7,64.3,30.25,SE,141,2.3,2.3,75,0.00,OVC,,0.00,891.0,WeatherDisplay:10.37,2013-06-20 14:43:00,
2013-06-20 10:48:00,72.9,64.5,30.25,West,278,3.5,3.5,75,0.00,OVC,,0.00,385.0,WeatherDisplay:10.37,2013-06-20 14:48:00,
2013-06-20 10:53:00,73.4,65.4,30.25,SSW,213,4.6,4.6,76,0.00,OVC,,0.00,434.0,WeatherDisplay:10.37,2013-06-20 14:53:00,
2013-06-20 10:58:00,72.5,64.9,30.25,SW,220,3.5,3.5,77,0.00,OVC,,0.00,264.0,WeatherDisplay:10.37,2013-06-20 14:58:00,
2013-06-20 11:03:00,72.0,65.1,30.25,SW,231,2.3,2.3,79,0.00,BKN,,0.00,925.0,WeatherDisplay:10.37,2013-06-20 15:03:00,
2013-06-20 11:08:00,73.2,64.8,30.25,South,182,4.6,4.6,75,0.00,BKN,,0.00,870.0,WeatherDisplay:10.37,2013-06-20 15:08:00,
2013-06-20 11:13:00,73.5,65.8,30.25,SSW,206,4.0,4.0,77,0.00,BKN,,0.00,886.0,WeatherDisplay:10.37,2013-06-20 15:13:00,
2013-06-20 11:18:00,74.2,65.4,30.25,WSW,252,3.5,3.5,74,0.00,BKN,,0.00,921.0,WeatherDisplay:10.37,2013-06-20 15:18:00,
2013-06-20 11:23:00,75.2,64.7,30.25,South,186,3.5,3.5,70,0.00,BKN,,0.00,879.0,WeatherDisplay:10.37,2013-06-20 15:23:00,
2013-06-20 11:28:00,74.9,64.9,30.25,SE,145,3.5,3.5,71,0.00,BKN,,0.00,918.0,WeatherDisplay:10.37,2013-06-20 15:28:00,
2013-06-20 11:33:00,74.7,64.7,30.25,SE,145,2.3,2.3,71,0.00,BKN,,0.00,923.0,WeatherDisplay:10.37,2013-06-20 15:33:00,
2013-06-20 11:38:00,75.2,66.3,30.25,SE,139,3.5,3.5,74,0.00,BKN,,0.00,891.0,WeatherDisplay:10.37,2013-06-20 15:38:00,
2013-06-20 11:43:00,75.1,64.6,30.25,SW,232,3.0,3.0,70,0.00,BKN,,0.00,988.0,WeatherDisplay:10.37,2013-06-20 15:43:00,
2013-06-20 11:48:00,75.7,65.6,30.25,SW,217,3.5,3.5,71,0.00,BKN,,0.00,1016.0,WeatherDisplay:10.37,2013-06-20 15:48:00,
2013-06-20 11:53:00,75.6,67.5,30.25,SE,126,2.3,2.3,76,0.00,BKN,,0.00,1021.0,WeatherDisplay:10.37,2013-06-20 15:53:00,
2013-06-20 11:58:00,75.4,64.1,30.25,ESE,116,3.5,3.5,68,0.00,BKN,,0.00,962.0,WeatherDisplay:10.37,2013-06-20 15:58:00,
2013-06-20 12:03:00,75.2,63.1,30.25,ESE,120,2.0,2.0,66,0.00,FEW,,0.00,258.0,WeatherDisplay:10.37,2013-06-20 16:03:00,
2013-06-20 12:08:00,74.8,63.1,30.25,SSW,200,4.0,4.0,67,0.00,FEW,,0.00,1088.0,WeatherDisplay:10.37,2013-06-20 16:08:00,
2013-06-20 12:13:00,75.8,64.1,30.25,SSW,194,4.6,4.6,67,0.00,FEW,,0.00,1074.0,WeatherDisplay:10.37,2013-06-20 16:13:00,
2013-06-20 12:18:00,76.7,63.6,30.25,SE,125,3.5,3.5,64,0.00,FEW,,0.00,1051.0,WeatherDisplay:10.37,2013-06-20 16:18:00,
2013-06-20 12:23:00,77.4,64.7,30.25,SE,128,3.5,3.5,65,0.00,FEW,,0.00,998.0,WeatherDisplay:10.37,2013-06-20 16:23:00,
2013-06-20 12:28:00,77.1,62.1,30.25,East,94,3.5,3.5,60,0.00,FEW,,0.00,411.0,WeatherDisplay:10.37,2013-06-20 16:28:00,
2013-06-20 12:33:00,76.9,63.8,30.25,ESE,123,4.6,4.6,64,0.00,FEW,,0.00,371.0,WeatherDisplay:10.37,2013-06-20 16:33:00,
2013-06-20 12:38:00,77.1,62.6,30.25,SSW,198,3.5,3.5,61,0.00,FEW,,0.00,1072.0,WeatherDisplay:10.37,2013-06-20 16:38:00,
2013-06-20 12:43:00,77.1,64.4,30.25,SE,140,5.8,5.8,65,0.00,FEW,,0.00,1060.0,WeatherDisplay:10.37,2013-06-20 16:43:00,
2013-06-20 12:48:00,77.6,63.1,30.25,ESE,113,4.6,4.6,61,0.00,FEW,,0.00,246.0,WeatherDisplay:10.37,2013-06-20 16:48:00,
2013-06-20 12:53:00,76.0,62.0,30.25,South,175,3.5,3.5,62,0.00,FEW,,0.00,278.0,WeatherDisplay:10.37,2013-06-20 16:53:00,
2013-06-20 12:58:00,75.4,60.5,30.25,South,176,3.5,3.5,60,0.00,SCT,,0.00,322.0,WeatherDisplay:10.37,2013-06-20 16:58:00,
2013-06-20 13:03:00,75.7,61.8,30.25,SE,131,3.5,3.5,62,0.00,SCT,,0.00,262.0,WeatherDisplay:10.37,2013-06-20 17:03:00,
2013-06-20 13:08:00,75.1,62.1,30.25,SE,142,2.3,2.3,64,0.00,SCT,,0.00,274.0,WeatherDisplay:10.37,2013-06-20 17:08:00,
2013-06-20 13:13:00,74.9,61.9,30.24,ESE,119,3.5,3.5,64,0.00,SCT,,0.00,237.0,WeatherDisplay:10.37,2013-06-20 17:13:00,
2013-06-20 13:18:00,74.9,61.9,30.24,South,176,3.5,3.5,64,0.00,SCT,,0.00,225.0,WeatherDisplay:10.37,2013-06-20 17:18:00,
2013-06-20 13:23:00,74.7,60.8,30.24,SSW,205,2.3,2.3,62,0.00,SCT,,0.00,239.0,WeatherDisplay:10.37,2013-06-20 17:23:00,
2013-06-20 13:28:00,75.9,63.3,30.24,SE,126,3.5,3.5,65,0.00,SCT,,0.00,1116.0,WeatherDisplay:10.37,2013-06-20 17:28:00,
2013-06-20 13:33:00,77.1,63.1,30.24,South,178,4.0,4.0,62,0.00,SCT,,0.00,1116.0,WeatherDisplay:10.37,2013-06-20 17:33:00,
2013-06-20 13:38:00,77.9,63.4,30.24,ESE,123,3.5,3.5,61,0.00,SCT,,0.00,1051.0,WeatherDisplay:10.37,2013-06-20 17:38:00,
2013-06-20 13:43:00,77.5,60.6,30.24,ESE,103,3.5,3.5,56,0.00,SCT,,0.00,206.0,WeatherDisplay:10.37,2013-06-20 17:43:00,
2013-06-20 13:48:00,76.6,59.7,30.24,ESE,107,4.6,4.6,56,0.00,SCT,,0.00,251.0,WeatherDisplay:10.37,2013-06-20 17:48:00,
2013-06-20 13:53:00,77.7,62.7,30.24,South,169,2.3,2.3,60,0.00,SCT,,0.00,1005.0,WeatherDisplay:10.37,2013-06-20 17:53:00,
2013-06-20 13:58:00,78.4,59.9,30.23,South,174,2.3,2.3,53,0.00,SCT,,0.00,183.0,WeatherDisplay:10.37,2013-06-20 17:58:00,
2013-06-20 14:03:00,77.0,60.1,30.23,ESE,111,2.3,2.3,56,0.00,SCT,,0.00,248.0,WeatherDisplay:10.37,2013-06-20 18:03:00,
2013-06-20 14:08:00,76.3,60.4,30.23,ESE,114,2.3,2.3,58,0.00,SCT,,0.00,211.0,WeatherDisplay:10.37,2013-06-20 18:08:00,
2013-06-20 14:13:00,76.1,59.3,30.23,East,99,3.5,3.5,56,0.00,SCT,,0.00,200.0,WeatherDisplay:10.37,2013-06-20 18:13:00,
2013-06-20 14:18:00,75.9,60.1,30.24,SE,138,3.5,3.5,58,0.00,SCT,,0.00,181.0,WeatherDisplay:10.37,2013-06-20 18:18:00,
2013-06-20 14:23:00,75.5,61.6,30.24,SSE,148,4.6,4.6,62,0.00,SCT,,0.00,178.0,WeatherDisplay:10.37,2013-06-20 18:23:00,
2013-06-20 14:28:00,75.4,61.0,30.24,SSE,160,4.6,4.6,61,0.00,SCT,,0.00,220.0,WeatherDisplay:10.37,2013-06-20 18:28:00,
2013-06-20 14:33:00,75.8,62.3,30.24,SSE,159,3.5,3.5,63,0.00,SCT,,0.00,290.0,WeatherDisplay:10.37,2013-06-20 18:33:00,
2013-06-20 14:38:00,77.1,61.2,30.24,South,177,8.1,8.1,58,0.00,SCT,,0.00,1086.0,WeatherDisplay:10.37,2013-06-20 18:38:00,
2013-06-20 14:43:00,78.2,61.7,30.24,SSE,162,8.1,8.1,57,0.00,SCT,,0.00,568.0,WeatherDisplay:10.37,2013-06-20 18:43:00,
2013-06-20 14:48:00,77.6,59.6,30.23,ESE,118,3.5,3.5,54,0.00,SCT,,0.00,454.0,WeatherDisplay:10.37,2013-06-20 18:48:00,
2013-06-20 14:53:00,78.1,59.6,30.23,ESE,113,3.5,3.5,53,0.00,SCT,,0.00,327.0,WeatherDisplay:10.37,2013-06-20 18:53:00,
2013-06-20 14:58:00,77.3,59.9,30.24,South,169,8.1,8.1,55,0.00,BKN,,0.00,269.0,WeatherDisplay:10.37,2013-06-20 18:58:00,
2013-06-20 15:03:00,76.7,59.3,30.24,ESE,121,3.5,3.5,55,0.00,BKN,,0.00,251.0,WeatherDisplay:10.37,2013-06-20 19:03:00,
2013-06-20 15:08:00,76.2,60.3,30.24,ESE,116,4.0,4.0,58,0.00,BKN,,0.00,241.0,WeatherDisplay:10.37,2013-06-20 19:08:00,
2013-06-20 15:13:00,75.5,59.7,30.24,ESE,118,3.5,3.5,58,0.00,BKN,,0.00,257.0,WeatherDisplay:10.37,2013-06-20 19:13:00,
2013-06-20 15:18:00,75.4,60.5,30.23,SE,138,8.1,8.1,60,0.00,BKN,,0.00,283.0,WeatherDisplay:10.37,2013-06-20 19:18:00,
2013-06-20 15:23:00,75.7,59.9,30.24,SSE,159,9.2,9.2,58,0.00,BKN,,0.00,288.0,WeatherDisplay:10.37,2013-06-20 19:23:00,
2013-06-20 15:28:00,75.5,60.2,30.24,ESE,119,5.0,5.0,59,0.00,BKN,,0.00,272.0,WeatherDisplay:10.37,2013-06-20 19:28:00,
2013-06-20 15:33:00,75.6,59.8,30.24,SSE,157,5.0,5.0,58,0.00,BKN,,0.00,246.0,WeatherDisplay:10.37,2013-06-20 19:33:00,
2013-06-20 15:38:00,75.6,59.8,30.24,ESE,116,4.6,4.6,58,0.00,BKN,,0.00,297.0,WeatherDisplay:10.37,2013-06-20 19:38:00,
2013-06-20 15:43:00,76.6,60.7,30.23,ESE,123,9.2,9.2,58,0.00,BKN,,0.00,998.0,WeatherDisplay:10.37,2013-06-20 19:43:00,
2013-06-20 15:48:00,77.9,61.4,30.23,SE,142,5.8,5.8,57,0.00,BKN,,0.00,336.0,WeatherDisplay:10.37,2013-06-20 19:48:00,
2013-06-20 15:53:00,76.7,61.3,30.23,WSW,237,6.0,6.0,59,0.00,BKN,,0.00,257.0,WeatherDisplay:10.37,2013-06-20 19:53:00,
2013-06-20 15:58:00,76.3,60.4,30.23,SE,124,5.8,5.8,58,0.00,SCT,,0.00,243.0,WeatherDisplay:10.37,2013-06-20 19:58:00,
2013-06-20 16:03:00,76.0,60.6,30.23,SSE,167,5.8,5.8,59,0.00,SCT,,0.00,316.0,WeatherDisplay:10.37,2013-06-20 20:03:00,
2013-06-20 16:08:00,76.4,60.0,30.23,ESE,120,6.9,6.9,57,0.00,SCT,,0.00,376.0,WeatherDisplay:10.37,2013-06-20 20:08:00,
2013-06-20 16:13:00,77.6,60.7,30.23,ESE,115,4.0,4.0,56,0.00,SCT,,0.00,759.0,WeatherDisplay:10.37,2013-06-20 20:13:00,
2013-06-20 16:18:00,78.5,61.5,30.23,SE,128,4.6,4.6,56,0.00,SCT,,0.00,777.0,WeatherDisplay:10.37,2013-06-20 20:18:00,
2013-06-20 16:23:00,78.7,60.7,30.23,ESE,116,3.5,3.5,54,0.00,SCT,,0.00,756.0,WeatherDisplay:10.37,2013-06-20 20:23:00,
2013-06-20 16:28:00,77.1,60.2,30.22,SE,137,3.5,3.5,56,0.00,SCT,,0.00,287.0,WeatherDisplay:10.37,2013-06-20 20:28:00,
2013-06-20 16:33:00,76.3,59.4,30.22,SE,128,4.6,4.6,56,0.00,SCT,,0.00,278.0,WeatherDisplay:10.37,2013-06-20 20:33:00,
2013-06-20 16:38:00,76.6,60.7,30.22,South,173,3.5,3.5,58,0.00,SCT,,0.00,318.0,WeatherDisplay:10.37,2013-06-20 20:38:00,
2013-06-20 16:43:00,76.6,60.7,30.22,ENE,64,5.8,5.8,58,0.00,SCT,,0.00,230.0,WeatherDisplay:10.37,2013-06-20 20:43:00,
2013-06-20 16:48:00,76.9,62.0,30.22,SSW,196,4.6,4.6,60,0.00,SCT,,0.00,541.0,WeatherDisplay:10.37,2013-06-20 20:48:00,
2013-06-20 16:53:00,77.6,61.7,30.22,SSE,158,5.8,5.8,58,0.00,SCT,,0.00,563.0,WeatherDisplay:10.37,2013-06-20 20:53:00,
2013-06-20 16:58:00,78.0,61.5,30.22,ESE,115,2.3,2.3,57,0.00,SCT,,0.00,612.0,WeatherDisplay:10.37,2013-06-20 20:58:00,
2013-06-20 17:03:00,78.7,61.2,30.22,SE,146,3.5,3.5,55,0.00,SCT,,0.00,564.0,WeatherDisplay:10.37,2013-06-20 21:03:00,
2013-06-20 17:08:00,78.6,61.1,30.22,South,185,4.0,4.0,55,0.00,SCT,,0.00,552.0,WeatherDisplay:10.37,2013-06-20 21:08:00,
2013-06-20 17:13:00,78.5,62.0,30.22,South,173,5.8,5.8,57,0.00,SCT,,0.00,529.0,WeatherDisplay:10.37,2013-06-20 21:13:00,
2013-06-20 17:18:00,78.3,60.8,30.22,SSW,200,4.6,4.6,55,0.00,SCT,,0.00,510.0,WeatherDisplay:10.37,2013-06-20 21:18:00,
2013-06-20 17:23:00,78.1,60.6,30.22,SSE,160,4.6,4.6,55,0.00,SCT,,0.00,497.0,WeatherDisplay:10.37,2013-06-20 21:23:00,
2013-06-20 17:28:00,77.9,61.9,30.22,SSW,194,3.5,3.5,58,0.00,SCT,,0.00,475.0,WeatherDisplay:10.37,2013-06-20 21:28:00,
2013-06-20 17:33:00,78.2,61.2,30.22,South,174,3.5,3.5,56,0.00,SCT,,0.00,475.0,WeatherDisplay:10.37,2013-06-20 21:33:00,
2013-06-20 17:38:00,78.2,61.7,30.22,SSW,204,6.9,6.9,57,0.00,SCT,,0.00,452.0,WeatherDisplay:10.37,2013-06-20 21:38:00,
2013-06-20 17:43:00,78.2,61.7,30.22,SE,125,3.5,3.5,57,0.00,SCT,,0.00,436.0,WeatherDisplay:10.37,2013-06-20 21:43:00,
2013-06-20 17:48:00,78.5,63.0,30.22,SSE,147,3.5,3.5,59,0.00,SCT,,0.00,425.0,WeatherDisplay:10.37,2013-06-20 21:48:00,
2013-06-20 17:53:00,78.4,61.9,30.22,SSW,198,5.0,5.0,57,0.00,SCT,,0.00,411.0,WeatherDisplay:10.37,2013-06-20 21:53:00,
2013-06-20 17:58:00,77.8,62.3,30.22,SSE,164,3.5,3.5,59,0.00,BKN,,0.00,396.0,WeatherDisplay:10.37,2013-06-20 21:58:00,
2013-06-20 18:03:00,77.6,61.7,30.22,SSW,198,4.6,4.6,58,0.00,BKN,,0.00,376.0,WeatherDisplay:10.37,2013-06-20 22:03:00,
2013-06-20 18:08:00,77.5,61.6,30.22,SSE,151,3.5,3.5,58,0.00,BKN,,0.00,362.0,WeatherDisplay:10.37,2013-06-20 22:08:00,
2013-06-20 18:14:00,77.4,61.9,30.22,SSW,197,3.5,3.5,59,0.00,BKN,,0.00,343.0,WeatherDisplay:10.37,2013-06-20 22:14:00,
2013-06-20 18:19:00,77.5,61.6,30.22,South,182,3.5,3.5,58,0.00,BKN,,0.00,318.0,WeatherDisplay:10.37,2013-06-20 22:19:00,
2013-06-20 18:24:00,77.3,61.9,30.22,South,169,3.5,3.5,59,0.00,BKN,,0.00,304.0,WeatherDisplay:10.37,2013-06-20 22:24:00,
2013-06-20 18:29:00,77.1,61.7,30.22,South,173,3.5,3.5,59,0.00,BKN,,0.00,272.0,WeatherDisplay:10.37,2013-06-20 22:29:00,
2013-06-20 18:34:00,77.1,62.1,30.22,South,180,4.6,4.6,60,0.00,BKN,,0.00,262.0,WeatherDisplay:10.37,2013-06-20 22:34:00,
2013-06-20 18:39:00,76.7,61.3,30.22,South,182,3.5,3.5,59,0.00,BKN,,0.00,243.0,WeatherDisplay:10.37,2013-06-20 22:39:00,
2013-06-20 18:44:00,76.5,61.6,30.23,South,183,3.5,3.5,60,0.00,BKN,,0.00,241.0,WeatherDisplay:10.37,2013-06-20 22:44:00,
2013-06-20 18:49:00,76.4,61.5,30.23,South,183,6.0,6.0,60,0.00,BKN,,0.00,204.0,WeatherDisplay:10.37,2013-06-20 22:49:00,
2013-06-20 18:54:00,76.4,61.0,30.23,South,182,2.3,2.3,59,0.00,BKN,,0.00,83.0,WeatherDisplay:10.37,2013-06-20 22:54:00,
2013-06-20 18:59:00,76.0,61.1,30.23,South,182,2.3,2.3,60,0.00,OVC,,0.00,77.0,WeatherDisplay:10.37,2013-06-20 22:59:00,
2013-06-20 19:04:00,75.3,60.9,30.23,South,182,2.3,2.3,61,0.00,OVC,,0.00,156.0,WeatherDisplay:10.37,2013-06-20 23:04:00,
2013-06-20 19:09:00,74.9,61.5,30.23,South,171,2.3,2.3,63,0.00,OVC,,0.00,158.0,WeatherDisplay:10.37,2013-06-20 23:09:00,
2013-06-20 19:14:00,74.9,61.0,30.23,South,182,3.0,3.0,62,0.00,OVC,,0.00,141.0,WeatherDisplay:10.37,2013-06-20 23:14:00,
2013-06-20 19:19:00,74.9,61.0,30.23,South,179,4.6,4.6,62,0.00,OVC,,0.00,97.0,WeatherDisplay:10.37,2013-06-20 23:19:00,
2013-06-20 19:24:00,74.8,61.8,30.23,South,184,2.3,2.3,64,0.00,OVC,,0.00,56.0,WeatherDisplay:10.37,2013-06-20 23:24:00,
2013-06-20 19:29:00,74.5,61.1,30.23,South,183,3.5,3.5,63,0.00,OVC,,0.00,51.0,WeatherDisplay:10.37,2013-06-20 23:29:00,
2013-06-20 19:34:00,74.3,60.9,30.23,South,171,2.3,2.3,63,0.00,OVC,,0.00,46.0,WeatherDisplay:10.37,2013-06-20 23:34:00,
2013-06-20 19:39:00,74.1,61.6,30.23,South,175,2.3,2.3,65,0.00,OVC,,0.00,40.0,WeatherDisplay:10.37,2013-06-20 23:39:00,
2013-06-20 19:44:00,74.0,61.5,30.23,SSW,193,3.0,3.0,65,0.00,OVC,,0.00,37.0,WeatherDisplay:10.37,2013-06-20 23:44:00,
2013-06-20 19:49:00,73.8,61.3,30.22,South,173,3.0,3.0,65,0.00,OVC,,0.00,33.0,WeatherDisplay:10.37,2013-06-20 23:49:00,
2013-06-20 19:54:00,73.6,61.1,30.22,SE,140,3.5,3.5,65,0.00,OVC,,0.00,30.0,WeatherDisplay:10.37,2013-06-20 23:54:00,
2013-06-20 19:59:00,73.4,60.9,30.23,South,172,2.3,2.3,65,0.00,CLR,,0.00,28.0,WeatherDisplay:10.37,2013-06-20 23:59:00,
2013-06-20 20:04:00,73.2,60.7,30.23,SE,136,1.2,1.2,65,0.00,CLR,,0.00,23.0,WeatherDisplay:10.37,2013-06-21 00:04:00,
2013-06-20 20:09:00,73.0,61.0,30.23,SE,136,2.3,2.3,66,0.00,CLR,,0.00,19.0,WeatherDisplay:10.37,2013-06-21 00:09:00,
2013-06-20 20:14:00,72.8,61.2,30.23,SSE,151,3.5,3.5,67,0.00,CLR,,0.00,16.0,WeatherDisplay:10.37,2013-06-21 00:14:00,
2013-06-20 20:19:00,72.5,60.9,30.23,SSE,149,1.2,1.2,67,0.00,CLR,,0.00,14.0,WeatherDisplay:10.37,2013-06-21 00:19:00,
2013-06-20 20:24:00,72.3,61.1,30.23,SSE,153,1.2,1.2,68,0.00,CLR,,0.00,11.0,WeatherDisplay:10.37,2013-06-21 00:24:00,
2013-06-20 20:29:00,72.1,61.4,30.23,SSE,154,1.2,1.2,69,0.00,CLR,,0.00,7.0,WeatherDisplay:10.37,2013-06-21 00:29:00,
2013-06-20 20:34:00,72.0,60.9,30.23,ESE,107,3.5,3.5,68,0.00,CLR,,0.00,5.0,WeatherDisplay:10.37,2013-06-21 00:34:00,
2013-06-20 20:39:00,72.0,60.4,30.23,East,100,4.6,4.6,67,0.00,CLR,,0.00,0.0,WeatherDisplay:10.37,2013-06-21 00:39:00,
2013-06-20 20:44:00,71.9,60.8,30.23,ESE,111,1.2,1.2,68,0.00,CLR,,0.00,0.0,WeatherDisplay:10.37,2013-06-21 00:44:00,
2013-06-20 20:49:00,71.6,60.5,30.22,ESE,119,3.5,3.5,68,0.00,CLR,,0.00,0.0,WeatherDisplay:10.37,2013-06-21 00:49:00,
2013-06-20 20:54:00,71.4,60.3,30.22,South,172,2.3,0.0,68,0.00,CLR,,0.00,0.0,WeatherDisplay:10.37,2013-06-21 00:54:00,
2013-06-20 20:59:00,71.2,60.1,30.22,SSE,153,3.5,3.5,68,0.00,CLR,,0.00,0.0,WeatherDisplay:10.37,2013-06-21 00:59:00,
2013-06-20 21:04:00,71.0,59.9,30.23,South,174,2.0,2.0,68,0.00,CLR,,0.00,0.0,WeatherDisplay:10.37,2013-06-21 01:04:00,
2013-06-20 21:09:00,70.9,59.8,30.23,ESE,109,2.3,2.3,68,0.00,CLR,,0.00,0.0,WeatherDisplay:10.37,2013-06-21 01:09:00,
2013-06-20 21:14:00,70.7,59.6,30.22,SE,131,2.3,2.3,68,0.00,CLR,,0.00,0.0,WeatherDisplay:10.37,2013-06-21 01:14:00,
2013-06-20 21:19:00,70.4,59.7,30.22,ESE,120,2.3,2.3,69,0.00,CLR,,0.00,0.0,WeatherDisplay:10.37,2013-06-21 01:19:00,
2013-06-20 21:24:00,70.1,59.5,30.22,ESE,102,2.3,2.3,69,0.00,CLR,,0.00,0.0,WeatherDisplay:10.37,2013-06-21 01:24:00,
2013-06-20 21:29:00,69.8,59.2,30.23,ESE,105,3.5,3.5,69,0.00,CLR,,0.00,0.0,WeatherDisplay:10.37,2013-06-21 01:29:00,
2013-06-20 21:34:00,69.6,59.0,30.23,SE,130,2.3,2.3,69,0.00,CLR,,0.00,0.0,WeatherDisplay:10.37,2013-06-21 01:34:00,
2013-06-20 21:39:00,69.5,59.3,30.23,ESE,103,2.3,2.3,70,0.00,CLR,,0.00,0.0,WeatherDisplay:10.37,2013-06-21 01:39:00,
2013-06-20 21:44:00,69.3,59.1,30.23,ESE,104,1.2,1.2,70,0.00,CLR,,0.00,0.0,WeatherDisplay:10.37,2013-06-21 01:44:00,
2013-06-20 21:49:00,69.0,59.2,30.23,ESE,104,1.2,1.2,71,0.00,CLR,,0.00,0.0,WeatherDisplay:10.37,2013-06-21 01:49:00,
2013-06-20 21:54:00,68.8,58.6,30.24,ESE,104,3.5,3.5,70,0.00,CLR,,0.00,0.0,WeatherDisplay:10.37,2013-06-21 01:54:00,
2013-06-20 21:59:00,68.6,58.4,30.23,ESE,104,1.2,1.2,70,0.00,CLR,,0.00,0.0,WeatherDisplay:10.37,2013-06-21 01:59:00,
2013-06-20 22:04:00,68.5,58.7,30.23,ESE,104,1.2,1.2,71,0.00,CLR,,0.00,0.0,WeatherDisplay:10.37,2013-06-21 02:04:00,
2013-06-20 22:09:00,68.3,58.5,30.23,ESE,105,2.3,2.3,71,0.00,CLR,,0.00,0.0,WeatherDisplay:10.37,2013-06-21 02:09:00,
2013-06-20 22:14:00,68.2,58.4,30.24,ESE,105,1.2,1.2,71,0.00,CLR,,0.00,0.0,WeatherDisplay:10.37,2013-06-21 02:14:00,
2013-06-20 22:19:00,68.1,58.3,30.23,SE,138,2.3,2.3,71,0.00,CLR,,0.00,0.0,WeatherDisplay:10.37,2013-06-21 02:19:00,
2013-06-20 22:24:00,68.0,58.2,30.23,South,171,3.5,3.5,71,0.00,CLR,,0.00,0.0,WeatherDisplay:10.37,2013-06-21 02:24:00,
2013-06-20 22:29:00,67.9,58.1,30.23,ESE,122,2.3,2.3,71,0.00,CLR,,0.00,0.0,WeatherDisplay:10.37,2013-06-21 02:29:00,
2013-06-20 22:34:00,67.7,58.0,30.23,SE,134,2.3,2.3,71,0.00,CLR,,0.00,0.0,WeatherDisplay:10.37,2013-06-21 02:34:00,
2013-06-20 22:39:00,67.6,57.9,30.23,SE,139,2.3,2.3,71,0.00,CLR,,0.00,0.0,WeatherDisplay:10.37,2013-06-21 02:39:00,
2013-06-20 22:44:00,67.6,57.9,30.23,SE,131,2.3,2.3,71,0.00,CLR,,0.00,0.0,WeatherDisplay:10.37,2013-06-21 02:44:00,
2013-06-20 22:49:00,67.5,58.2,30.23,ESE,111,2.3,2.3,72,0.00,CLR,,0.00,0.0,WeatherDisplay:10.37,2013-06-21 02:49:00,
2013-06-20 22:54:00,67.4,58.1,30.24,ESE,111,2.3,2.3,72,0.00,CLR,,0.00,0.0,WeatherDisplay:10.37,2013-06-21 02:54:00,
2013-06-20 22:59:00,67.4,58.1,30.24,SSE,161,2.0,2.0,72,0.00,CLR,,0.00,0.0,WeatherDisplay:10.37,2013-06-21 02:59:00,
2013-06-20 23:04:00,67.2,57.9,30.24,ESE,119,1.2,1.2,72,0.00,CLR,,0.00,0.0,WeatherDisplay:10.37,2013-06-21 03:04:00,
2013-06-20 23:09:00,67.1,57.8,30.24,SE,132,2.3,2.3,72,0.00,CLR,,0.00,0.0,WeatherDisplay:10.37,2013-06-21 03:09:00,
2013-06-20 23:14:00,67.0,57.7,30.24,SE,138,2.3,2.3,72,0.00,CLR,,0.00,0.0,WeatherDisplay:10.37,2013-06-21 03:14:00,
2013-06-20 23:19:00,66.9,57.6,30.24,SE,142,2.3,2.3,72,0.00,CLR,,0.00,0.0,WeatherDisplay:10.37,2013-06-21 03:19:00,
2013-06-20 23:24:00,66.7,57.4,30.24,ESE,115,2.3,2.3,72,0.00,CLR,,0.00,0.0,WeatherDisplay:10.37,2013-06-21 03:24:00,
2013-06-20 23:29:00,66.7,57.4,30.24,ESE,106,3.5,3.5,72,0.00,CLR,,0.00,0.0,WeatherDisplay:10.37,2013-06-21 03:29:00,
2013-06-20 23:34:00,66.6,57.3,30.24,ESE,106,1.2,0.0,72,0.00,CLR,,0.00,0.0,WeatherDisplay:10.37,2013-06-21 03:34:00,
2013-06-20 23:39:00,66.5,57.6,30.24,ESE,106,1.2,1.2,73,0.00,CLR,,0.00,0.0,WeatherDisplay:10.37,2013-06-21 03:39:00,
2013-06-20 23:44:00,66.3,57.0,30.24,ESE,106,2.3,2.3,72,0.00,CLR,,0.00,0.0,WeatherDisplay:10.37,2013-06-21 03:44:00,
2013-06-20 23:49:00,66.3,57.4,30.24,ESE,106,2.3,2.3,73,0.00,CLR,,0.00,0.0,WeatherDisplay:10.37,2013-06-21 03:49:00,
2013-06-20 23:54:00,66.2,57.3,30.24,ESE,106,1.2,1.2,73,0.00,CLR,,0.00,0.0,WeatherDisplay:10.37,2013-06-21 03:54:00,
2013-06-20 23:59:00,66.1,57.2,30.24,South,184,2.0,2.0,73,0.00,CLR,,0.00,0.0,WeatherDisplay:10.37,2013-06-21 03:59:00,